createdAt,value
2022-12-19T01:54:15.744Z,18.10
2022-12-19T01:56:51.738Z,17.58
2022-12-19T01:59:28.030Z,18.98
2022-12-19T02:02:06.451Z,16.27
2022-12-19T02:04:40.641Z,17.75
2022-12-19T03:51:22.377Z,18.60
2022-12-19T03:56:41.642Z,18.00
2022-12-19T03:59:18.908Z,17.05
2022-12-19T04:01:53.590Z,18.58
2022-12-19T04:04:28.187Z,18.58
2022-12-19T04:07:02.735Z,17.45
2022-12-19T04:09:36.935Z,18.40
2022-12-19T04:12:13.552Z,18.20
2022-12-19T04:14:45.763Z,20.15
2022-12-19T04:17:26.452Z,22.35
2022-12-19T04:20:05.349Z,19.65
2022-12-19T04:22:41.846Z,19.95
2022-12-19T04:25:18.360Z,19.90
2022-12-19T04:27:53.607Z,21.63
2022-12-19T04:30:26.663Z,21.38
2022-12-19T04:32:59.525Z,23.85
2022-12-19T04:35:32.777Z,20.02
2022-12-19T04:40:41.509Z,17.85
2022-12-19T04:43:13.668Z,19.38
2022-12-19T04:45:46.132Z,17.95
2022-12-19T04:48:18.527Z,19.52
2022-12-19T04:50:51.704Z,19.60
2022-12-19T04:53:24.771Z,22.65
2022-12-19T04:56:01.213Z,23.27
2022-12-19T04:58:33.592Z,22.23
2022-12-19T05:01:07.647Z,21.97
2022-12-19T05:03:39.785Z,20.48
2022-12-19T05:06:14.070Z,19.70
2022-12-19T05:08:46.410Z,20.00
2022-12-19T05:11:20.009Z,19.20
2022-12-19T05:13:52.003Z,19.52
2022-12-19T05:16:23.790Z,18.50
2022-12-19T05:18:57.153Z,18.75
2022-12-19T05:24:01.878Z,19.70
2022-12-19T05:26:33.648Z,18.98
2022-12-19T05:29:05.409Z,19.90
2022-12-19T05:31:37.304Z,20.63
2022-12-19T05:34:09.121Z,19.23
2022-12-19T05:36:42.242Z,22.15
2022-12-19T05:39:14.156Z,20.15
2022-12-19T05:41:49.006Z,22.63
2022-12-19T05:44:21.295Z,20.65
2022-12-19T05:46:53.097Z,19.27
2022-12-19T05:49:24.911Z,21.80
2022-12-19T05:51:58.293Z,21.42
2022-12-19T05:54:31.107Z,20.70
2022-12-19T05:57:02.982Z,22.35
2022-12-19T05:59:34.761Z,21.63
2022-12-19T06:02:06.641Z,22.25
2022-12-19T06:04:38.452Z,21.35
2022-12-19T06:07:13.454Z,20.48
2022-12-19T06:09:47.066Z,21.25
2022-12-19T06:12:18.860Z,21.80
2022-12-19T06:14:50.929Z,22.23
2022-12-19T06:17:22.884Z,21.23
2022-12-19T06:19:54.622Z,22.00
2022-12-19T06:22:27.719Z,20.77
2022-12-19T06:24:59.547Z,22.63
2022-12-19T06:27:31.352Z,23.10
2022-12-19T06:30:03.597Z,24.17
2022-12-19T06:32:38.097Z,24.67
2022-12-19T06:35:10.219Z,28.02
2022-12-19T06:37:43.334Z,30.17
2022-12-19T06:40:35.160Z,23.92
2022-12-19T06:43:06.949Z,21.15
2022-12-19T06:45:38.730Z,23.92
2022-12-19T06:48:10.521Z,23.05
2022-12-19T06:50:42.251Z,20.05
2022-12-19T06:53:15.386Z,20.75
2022-12-19T06:58:24.061Z,19.38
2022-12-19T07:00:56.794Z,19.17
2022-12-19T07:03:31.246Z,20.70
2022-12-19T07:06:03.404Z,20.50
2022-12-19T07:08:36.603Z,20.30
2022-12-19T08:30:02.650Z,22.10
2022-12-19T08:32:34.473Z,21.83
2022-12-19T08:35:07.442Z,21.40
2022-12-19T08:37:40.383Z,20.88
2022-12-19T09:18:48.442Z,20.38
2022-12-19T09:21:23.056Z,20.23
2022-12-19T09:24:00.536Z,19.95
2022-12-19T09:26:39.260Z,21.27
2022-12-19T09:29:19.849Z,20.83
2022-12-19T09:31:56.173Z,20.10
2022-12-19T09:34:37.058Z,19.95
2022-12-19T09:37:16.665Z,20.13
2022-12-19T09:39:49.695Z,20.05
2022-12-19T09:42:44.732Z,21.17
2022-12-19T09:45:37.338Z,20.67
2022-12-19T09:48:23.514Z,22.58
2022-12-19T09:51:10.512Z,20.75
2022-12-19T10:01:50.780Z,22.63
2022-12-19T10:04:26.718Z,21.77
2022-12-19T10:07:21.261Z,21.95
2022-12-19T10:12:40.720Z,20.42
2022-12-19T10:13:13.202Z,21.85
2022-12-19T10:15:58.995Z,23.42
2022-12-19T10:18:48.445Z,21.73
2022-12-19T10:21:59.489Z,22.25
2022-12-19T10:24:40.367Z,23.23
2022-12-19T10:58:58.623Z,20.20
2022-12-19T11:01:34.806Z,20.48
2022-12-19T11:04:29.505Z,21.35
2022-12-19T11:07:19.049Z,20.02
2022-12-19T11:10:06.479Z,21.23
2022-12-19T11:17:46.797Z,21.77
2022-12-19T11:19:28.386Z,23.48
2022-12-19T11:29:15.212Z,21.23
2022-12-19T11:29:31.733Z,21.00
2022-12-19T11:30:38.169Z,23.52
2022-12-19T11:30:46.257Z,21.95
2022-12-19T11:33:24.010Z,20.50
2022-12-19T11:35:58.965Z,20.30
2022-12-19T11:49:05.239Z,19.70
2022-12-19T11:51:43.420Z,19.40
2022-12-19T11:56:52.818Z,19.35
2022-12-19T11:59:30.638Z,19.80
2022-12-19T12:02:41.973Z,19.40
2022-12-19T12:05:32.894Z,18.25
2022-12-19T12:10:40.102Z,18.75
2022-12-19T12:18:11.883Z,17.30
2022-12-19T12:23:27.172Z,17.60
2022-12-19T12:31:10.766Z,19.02
2022-12-19T12:31:23.723Z,19.25
2022-12-19T12:31:44.727Z,19.58
2022-12-19T12:31:48.869Z,19.15
2022-12-19T12:32:03.000Z,19.52
2022-12-19T12:35:28.855Z,19.25
2022-12-19T12:39:04.883Z,20.10
2022-12-19T12:42:03.730Z,20.92
2022-12-19T12:44:45.207Z,22.63
2022-12-19T12:47:20.525Z,19.90
2022-12-19T12:49:56.367Z,21.67
2022-12-19T12:52:33.769Z,22.27
2022-12-19T12:55:15.506Z,22.98
2022-12-19T12:57:47.456Z,20.85
2022-12-19T13:00:26.187Z,22.80
2022-12-19T13:03:05.111Z,23.65
2022-12-19T13:05:53.013Z,21.35
2022-12-19T13:08:34.396Z,24.08
2022-12-19T13:11:11.677Z,24.65
2022-12-19T13:13:55.032Z,22.13
2022-12-19T13:16:53.015Z,20.75
2022-12-19T13:22:34.212Z,20.85
2022-12-19T13:25:44.843Z,22.15
2022-12-19T13:28:38.979Z,20.33
2022-12-19T13:31:22.932Z,20.13
2022-12-19T13:34:18.263Z,21.45
2022-12-19T13:39:51.497Z,21.27
2022-12-19T13:40:20.605Z,19.90
2022-12-19T13:43:20.665Z,20.15
2022-12-19T13:45:55.510Z,19.75
2022-12-19T13:48:31.668Z,20.23
2022-12-19T17:06:29.290Z,20.40
2022-12-19T17:09:01.041Z,21.05
2022-12-19T17:11:33.259Z,19.20
2022-12-19T17:29:25.121Z,20.10
2022-12-19T17:31:58.591Z,21.98
2022-12-19T17:34:32.188Z,20.15
2022-12-19T17:37:05.405Z,21.80
2022-12-19T17:39:38.250Z,21.83
2022-12-19T17:42:16.417Z,21.00
2022-12-19T17:44:48.355Z,23.75
2022-12-19T17:47:21.503Z,21.38
2022-12-19T17:49:53.287Z,20.17
2022-12-19T19:49:37.978Z,20.05
2022-12-19T20:37:46.959Z,21.25
2022-12-19T20:40:18.927Z,21.02
2022-12-19T20:42:50.688Z,20.90
2022-12-19T20:45:22.586Z,19.05
2022-12-19T20:47:55.287Z,22.35
2022-12-19T20:50:28.725Z,17.67
2022-12-19T20:53:00.648Z,19.67
2022-12-19T20:55:32.412Z,17.17
2022-12-19T20:58:04.332Z,17.13
2022-12-19T21:00:37.392Z,18.88
2022-12-19T21:06:03.380Z,18.38
2022-12-19T21:08:35.489Z,20.77
2022-12-19T21:11:08.678Z,18.25
2022-12-19T21:13:41.477Z,18.23
2022-12-19T21:16:16.499Z,23.65
2022-12-19T21:18:49.038Z,21.13
2022-12-19T21:21:24.281Z,20.65
2022-12-19T21:23:56.129Z,20.58
2022-12-19T21:26:27.929Z,17.00
2022-12-19T21:28:59.993Z,18.17
2022-12-19T21:31:32.027Z,20.70
2022-12-19T21:34:03.909Z,20.27
2022-12-19T21:36:38.494Z,19.08
2022-12-19T21:39:10.966Z,17.15
2022-12-19T21:41:42.731Z,19.87
2022-12-19T21:44:14.482Z,19.33
2022-12-19T21:46:46.335Z,19.38
2022-12-19T21:49:18.176Z,19.23
2022-12-19T21:51:51.336Z,18.35
2022-12-19T21:54:23.104Z,19.15
2022-12-19T21:56:54.890Z,20.17
2022-12-19T21:59:28.413Z,19.73
2022-12-19T22:02:00.358Z,19.40
2022-12-19T22:04:32.321Z,20.55
2022-12-19T22:07:05.830Z,21.30
2022-12-19T22:09:37.611Z,20.45
2022-12-19T22:12:11.917Z,21.40
2022-12-19T22:14:43.761Z,20.42
2022-12-19T22:17:15.535Z,21.35
2022-12-19T22:19:47.342Z,20.55
2022-12-19T22:22:20.433Z,20.20
2022-12-19T22:24:52.192Z,20.40
2022-12-19T23:43:31.126Z,21.00
